createdAt,value
2017-09-23T00:00:13.856Z,8.83
2017-09-23T00:01:13.843Z,8.77
2017-09-23T00:02:13.845Z,8.81
2017-09-23T00:03:14.142Z,8.81
2017-09-23T00:04:14.134Z,8.86
2017-09-23T00:05:14.122Z,8.8
2017-09-23T00:06:14.114Z,8.77
2017-09-23T00:07:14.112Z,8.8
2017-09-23T00:08:14.098Z,8.77
2017-09-23T00:09:14.118Z,8.8
2017-09-23T00:10:14.078Z,8.77
2017-09-23T00:11:14.065Z,8.74
2017-09-23T00:12:14.058Z,8.8
2017-09-23T00:13:14.048Z,8.77
2017-09-23T00:14:14.038Z,8.81
2017-09-23T00:15:14.135Z,8.79
2017-09-23T00:16:14.020Z,8.8
2017-09-23T00:17:14.024Z,8.77
2017-09-23T00:18:13.998Z,8.76
2017-09-23T00:19:13.670Z,8.79
2017-09-23T00:20:13.980Z,8.8
2017-09-23T00:21:13.971Z,8.76
2017-09-23T00:22:13.636Z,8.79
2017-09-23T00:23:13.956Z,8.79
2017-09-23T00:24:13.622Z,8.8
2017-09-23T00:25:13.936Z,8.81
2017-09-23T00:26:13.920Z,8.79
2017-09-23T00:27:13.592Z,8.76
2017-09-23T00:28:13.904Z,8.8
2017-09-23T00:29:13.891Z,8.76
2017-09-23T00:30:13.242Z,8.84
2017-09-23T00:31:13.551Z,8.7
2017-09-23T00:32:13.861Z,8.66
2017-09-23T00:33:13.847Z,8.7
2017-09-23T00:34:13.843Z,8.7
2017-09-23T00:35:13.513Z,8.73
2017-09-23T00:36:13.824Z,8.7
2017-09-23T00:37:13.489Z,8.76
2017-09-23T00:38:13.811Z,8.73
2017-09-23T00:39:13.792Z,8.76
2017-09-23T00:40:13.785Z,8.71
2017-09-23T00:41:13.801Z,8.68
2017-09-23T00:42:13.442Z,8.74
2017-09-23T00:43:13.757Z,8.77
2017-09-23T00:44:13.746Z,8.76
2017-09-23T00:45:13.743Z,8.73
2017-09-23T00:46:13.408Z,8.7
2017-09-23T00:47:13.395Z,8.68
2017-09-23T00:48:13.708Z,8.65
2017-09-23T00:49:13.057Z,8.73
2017-09-23T00:50:13.688Z,8.65
2017-09-23T00:51:13.678Z,8.61
2017-09-23T00:52:13.666Z,8.62
2017-09-23T00:53:13.652Z,8.62
2017-09-23T00:54:13.645Z,8.59
2017-09-23T00:55:13.636Z,8.56
2017-09-23T00:56:13.629Z,8.55
2017-09-23T00:57:13.297Z,8.5
2017-09-23T00:58:13.288Z,8.55
2017-09-23T00:59:13.595Z,8.5
2017-09-23T01:00:13.589Z,8.47
2017-09-23T01:01:13.581Z,8.52
2017-09-23T01:02:13.573Z,8.5
2017-09-23T01:03:13.239Z,8.5
2017-09-23T01:04:13.548Z,8.5
2017-09-23T01:05:13.538Z,8.53
2017-09-23T01:06:13.528Z,8.55
2017-09-23T01:07:13.522Z,8.55
2017-09-23T01:08:13.190Z,8.47
2017-09-23T01:09:13.497Z,8.52
2017-09-23T01:10:13.169Z,8.52
2017-09-23T01:11:13.480Z,8.47
2017-09-23T01:12:13.472Z,8.43
2017-09-23T01:13:13.463Z,8.5
2017-09-23T01:14:13.467Z,8.48
2017-09-23T01:15:13.440Z,8.48
2017-09-23T01:16:13.430Z,8.4
2017-09-23T01:17:13.419Z,8.48
2017-09-23T01:18:13.413Z,8.48
2017-09-23T01:19:13.078Z,8.38
2017-09-23T01:20:13.389Z,8.44
2017-09-23T01:21:13.060Z,8.44
2017-09-23T01:22:13.371Z,8.43
2017-09-23T01:23:13.358Z,8.48
2017-09-23T01:24:13.031Z,8.37
2017-09-23T01:25:13.335Z,8.37
2017-09-23T01:26:13.334Z,8.5
2017-09-23T01:27:13.000Z,8.37
2017-09-23T01:28:13.314Z,8.37
2017-09-23T01:29:13.301Z,8.37
2017-09-23T01:30:13.289Z,8.43
2017-09-23T01:31:13.285Z,8.36
2017-09-23T01:32:13.282Z,8.34
2017-09-23T01:33:13.263Z,8.34
2017-09-23T01:34:13.253Z,8.33
2017-09-23T01:35:13.237Z,8.41
2017-09-23T01:36:13.230Z,8.37
2017-09-23T01:37:13.223Z,8.34
2017-09-23T01:38:13.209Z,8.33
2017-09-23T01:39:13.202Z,8.33
2017-09-23T01:40:12.877Z,8.4
2017-09-23T01:41:13.184Z,8.3
2017-09-23T01:42:13.173Z,8.33
2017-09-23T01:43:13.161Z,8.37
2017-09-23T01:44:13.152Z,8.36
2017-09-23T01:45:13.140Z,8.29
2017-09-23T01:46:13.128Z,8.36
2017-09-23T01:47:13.120Z,8.43
2017-09-23T01:48:13.112Z,8.38
2017-09-23T01:49:13.102Z,8.37
2017-09-23T01:50:13.089Z,8.29
2017-09-23T01:51:13.080Z,8.33
2017-09-23T01:52:12.749Z,8.34
2017-09-23T01:53:13.058Z,8.33
2017-09-23T01:54:13.051Z,8.28
2017-09-23T01:55:13.040Z,8.33
2017-09-23T01:56:12.709Z,8.29
2017-09-23T01:57:12.698Z,8.28
2017-09-23T01:58:13.006Z,8.28
2017-09-23T01:59:13.000Z,8.28
2017-09-23T02:00:12.672Z,8.29
2017-09-23T02:01:12.977Z,8.25
2017-09-23T02:02:12.967Z,8.23
2017-09-23T02:03:12.955Z,8.26
2017-09-23T02:04:12.967Z,8.22
2017-09-23T02:05:12.973Z,8.12
2017-09-23T02:06:12.610Z,8.11
2017-09-23T02:07:12.920Z,8.16
2017-09-23T02:08:12.910Z,8.18
2017-09-23T02:09:12.587Z,8.08
2017-09-23T02:10:12.889Z,8.11
2017-09-23T02:11:12.875Z,8.11
2017-09-23T02:12:12.868Z,8.12
2017-09-23T02:13:12.537Z,8.05
2017-09-23T02:14:12.849Z,8.15
2017-09-23T02:15:12.838Z,8
2017-09-23T02:16:12.828Z,8.05
2017-09-23T02:17:12.825Z,8.12
2017-09-23T02:18:12.805Z,8
2017-09-23T02:19:12.797Z,8.05
2017-09-23T02:20:12.785Z,8.04
2017-09-23T02:21:12.775Z,8.02
2017-09-23T02:22:12.766Z,8
2017-09-23T02:23:12.756Z,8.01
2017-09-23T02:24:12.746Z,8.18
2017-09-23T02:25:13.039Z,8.01
2017-09-23T02:26:12.723Z,8.12
2017-09-23T02:27:12.394Z,8.12
2017-09-23T02:28:12.702Z,8.12
2017-09-23T02:29:12.730Z,8.02
2017-09-23T02:30:12.694Z,8.16
2017-09-23T02:31:12.673Z,8.05
2017-09-23T02:32:12.345Z,8.02
2017-09-23T02:33:12.672Z,8.01
2017-09-23T02:34:12.327Z,8.16
2017-09-23T02:35:12.645Z,8.02
2017-09-23T02:36:12.622Z,8.02
2017-09-23T02:37:12.609Z,8.02
2017-09-23T02:38:12.291Z,8
2017-09-23T02:39:12.273Z,8.01
2017-09-23T02:40:12.586Z,8.02
2017-09-23T02:41:12.576Z,8.07
2017-09-23T02:42:12.575Z,8
2017-09-23T02:43:12.587Z,7.98
2017-09-23T02:44:12.569Z,8.02
2017-09-23T02:45:12.214Z,7.98
2017-09-23T02:46:12.521Z,8
2017-09-23T02:47:12.197Z,7.95
2017-09-23T02:48:12.182Z,7.95
2017-09-23T02:49:12.489Z,7.85
2017-09-23T02:50:12.163Z,7.93
2017-09-23T02:51:12.471Z,7.86
2017-09-23T02:52:12.459Z,7.92
2017-09-23T02:53:12.449Z,7.89
2017-09-23T02:54:12.442Z,7.9
2017-09-23T02:55:12.433Z,7.89
2017-09-23T02:56:12.419Z,7.97
2017-09-23T02:57:12.406Z,7.93
2017-09-23T02:58:12.406Z,7.85
2017-09-23T02:59:12.387Z,7.86
2017-09-23T03:00:12.390Z,7.85
2017-09-23T03:01:12.050Z,7.95
2017-09-23T03:02:12.353Z,7.95
2017-09-23T03:03:12.024Z,7.98
2017-09-23T03:04:12.018Z,7.87
2017-09-23T03:05:12.328Z,7.95
2017-09-23T03:06:11.994Z,7.87
2017-09-23T03:07:11.664Z,7.83
2017-09-23T03:08:11.670Z,7.89
2017-09-23T03:09:11.963Z,7.9
2017-09-23T03:10:12.271Z,7.93
2017-09-23T03:11:12.265Z,7.85
2017-09-23T03:12:12.252Z,7.87
2017-09-23T03:13:12.237Z,7.9
2017-09-23T03:14:12.232Z,7.86
2017-09-23T03:15:11.902Z,7.92
2017-09-23T03:16:12.211Z,7.83
2017-09-23T03:17:11.883Z,7.8
2017-09-23T03:18:12.190Z,7.83
2017-09-23T03:19:12.576Z,7.85
2017-09-23T03:20:11.847Z,7.82
2017-09-23T03:21:12.157Z,7.77
2017-09-23T03:22:12.147Z,7.79
2017-09-23T03:23:12.140Z,7.8
2017-09-23T03:24:11.809Z,7.71
2017-09-23T03:25:12.125Z,7.74
2017-09-23T03:26:11.787Z,7.63
2017-09-23T03:27:12.100Z,7.71
2017-09-23T03:28:12.091Z,7.67
2017-09-23T03:29:12.076Z,7.71
2017-09-23T03:30:11.749Z,7.69
2017-09-23T03:31:12.061Z,7.74
2017-09-23T03:32:11.724Z,7.72
2017-09-23T03:33:12.035Z,7.61
2017-09-23T03:34:11.709Z,7.68
2017-09-23T03:35:12.015Z,7.68
2017-09-23T03:36:11.691Z,7.63
2017-09-23T03:37:11.997Z,7.67
2017-09-23T03:38:11.659Z,7.74
2017-09-23T03:39:11.652Z,7.67
2017-09-23T03:40:11.968Z,7.71
2017-09-23T03:41:11.629Z,7.71
2017-09-23T03:42:11.943Z,7.67
2017-09-23T03:43:11.930Z,7.61
2017-09-23T03:44:11.602Z,7.61
2017-09-23T03:45:11.914Z,7.63
2017-09-23T03:46:11.578Z,7.67
2017-09-23T03:47:11.569Z,7.58
2017-09-23T03:48:11.561Z,7.57
2017-09-23T03:49:11.872Z,7.52
2017-09-23T03:50:11.858Z,7.57
2017-09-23T03:51:11.847Z,7.6
2017-09-23T03:52:11.837Z,7.55
2017-09-23T03:53:11.828Z,7.53
2017-09-23T03:54:11.816Z,7.68
2017-09-23T03:55:11.492Z,7.5
2017-09-23T03:56:11.795Z,7.58
2017-09-23T03:57:11.782Z,7.58
2017-09-23T03:58:11.770Z,7.55
2017-09-23T03:59:11.762Z,7.49
2017-09-23T04:00:11.428Z,7.55
2017-09-23T04:01:11.741Z,7.52
2017-09-23T04:02:11.736Z,7.63
2017-09-23T04:03:11.404Z,7.53
2017-09-23T04:04:11.712Z,7.6
2017-09-23T04:05:11.706Z,7.53
2017-09-23T04:06:11.689Z,7.5
2017-09-23T04:07:11.683Z,7.5
2017-09-23T04:08:11.353Z,7.5
2017-09-23T04:09:11.660Z,7.57
2017-09-23T04:10:11.653Z,7.52
2017-09-23T04:11:11.635Z,7.58
2017-09-23T04:12:11.629Z,7.58
2017-09-23T04:13:11.620Z,7.53
2017-09-23T04:14:11.610Z,7.6
2017-09-23T04:15:11.608Z,7.67
2017-09-23T04:16:11.584Z,7.46
2017-09-23T04:17:11.257Z,7.55
2017-09-23T04:18:11.245Z,7.49
2017-09-23T04:19:11.551Z,7.55
2017-09-23T04:20:11.546Z,7.61
2017-09-23T04:21:11.216Z,7.5
2017-09-23T04:22:11.523Z,7.63
2017-09-23T04:23:11.512Z,7.6
2017-09-23T04:24:11.180Z,7.57
2017-09-23T04:25:11.494Z,7.46
2017-09-23T04:26:11.481Z,7.61
2017-09-23T04:27:11.471Z,7.63
2017-09-23T04:28:11.460Z,7.61
2017-09-23T04:29:11.450Z,7.61
2017-09-23T04:30:11.119Z,7.52
2017-09-23T04:31:11.431Z,7.61
2017-09-23T04:32:10.778Z,7.6
2017-09-23T04:33:11.091Z,7.46
2017-09-23T04:34:11.079Z,7.6
2017-09-23T04:35:11.388Z,7.52
2017-09-23T04:36:11.376Z,7.53
2017-09-23T04:37:11.363Z,7.46
2017-09-23T04:38:11.362Z,7.57
2017-09-23T04:39:11.340Z,7.52
2017-09-23T04:40:11.588Z,7.52
2017-09-23T04:41:11.321Z,7.63
2017-09-23T04:42:11.312Z,7.46
2017-09-23T04:43:11.333Z,7.64
2017-09-23T04:44:10.977Z,7.58
2017-09-23T04:45:10.958Z,7.52
2017-09-23T04:46:10.950Z,7.53
2017-09-23T04:47:11.261Z,7.52
2017-09-23T04:48:10.927Z,7.63
2017-09-23T04:49:11.242Z,7.61
2017-09-23T04:50:10.907Z,7.58
2017-09-23T04:51:11.213Z,7.58
2017-09-23T04:52:11.207Z,7.64
2017-09-23T04:53:11.199Z,7.63
2017-09-23T04:54:10.864Z,7.61
2017-09-23T04:55:11.174Z,7.52
2017-09-23T04:56:10.843Z,7.57
2017-09-23T04:57:11.151Z,7.53
2017-09-23T04:58:11.145Z,7.53
2017-09-23T04:59:11.131Z,7.6
2017-09-23T05:00:11.122Z,7.55
2017-09-23T05:01:11.113Z,7.6
2017-09-23T05:02:10.780Z,7.6
2017-09-23T05:03:11.098Z,7.67
2017-09-23T05:04:11.077Z,7.71
2017-09-23T05:05:11.064Z,7.64
2017-09-23T05:06:11.060Z,7.71
2017-09-23T05:07:11.048Z,7.69
2017-09-23T05:08:11.038Z,7.68
2017-09-23T05:09:11.033Z,7.69
2017-09-23T05:10:10.695Z,7.68
2017-09-23T05:11:11.010Z,7.71
2017-09-23T05:12:11.015Z,7.64
2017-09-23T05:13:10.990Z,7.71
2017-09-23T05:14:10.336Z,7.69
2017-09-23T05:15:10.973Z,7.8
2017-09-23T05:16:10.955Z,7.71
2017-09-23T05:17:10.981Z,7.75
2017-09-23T05:18:10.612Z,7.71
2017-09-23T05:19:10.927Z,7.69
2017-09-23T05:20:10.917Z,7.77
2017-09-23T05:21:10.904Z,7.83
2017-09-23T05:22:10.889Z,7.89
2017-09-23T05:23:10.879Z,7.82
2017-09-23T05:24:10.548Z,7.82
2017-09-23T05:25:10.862Z,7.83
2017-09-23T05:26:10.849Z,7.87
2017-09-23T05:27:10.841Z,7.85
2017-09-23T05:28:10.510Z,7.92
2017-09-23T05:29:10.814Z,7.87
2017-09-23T05:30:10.807Z,7.97
2017-09-23T05:31:10.796Z,8.01
2017-09-23T05:32:10.786Z,8
2017-09-23T05:33:10.775Z,8.01
2017-09-23T05:34:10.766Z,8.05
2017-09-23T05:35:10.760Z,8.05
2017-09-23T05:36:10.425Z,8.11
2017-09-23T05:37:10.735Z,8.05
2017-09-23T05:38:10.725Z,8.12
2017-09-23T05:39:10.394Z,8.1
2017-09-23T05:40:10.703Z,8.16
2017-09-23T05:41:10.699Z,8.26
2017-09-23T05:42:10.685Z,8.26
2017-09-23T05:43:10.678Z,8.29
2017-09-23T05:44:10.027Z,8.36
2017-09-23T05:45:10.655Z,8.38
2017-09-23T05:46:10.004Z,8.33
2017-09-23T05:47:10.636Z,8.43
2017-09-23T05:48:10.305Z,8.4
2017-09-23T05:49:10.613Z,8.53
2017-09-23T05:50:10.602Z,8.48
2017-09-23T05:51:10.595Z,8.45
2017-09-23T05:52:10.266Z,8.53
2017-09-23T05:53:10.253Z,8.53
2017-09-23T05:54:10.566Z,8.58
2017-09-23T05:55:10.559Z,8.56
2017-09-23T05:56:10.547Z,8.7
2017-09-23T05:57:10.538Z,8.66
2017-09-23T05:58:10.205Z,8.76
2017-09-23T05:59:10.518Z,8.74
2017-09-23T06:00:10.506Z,8.76
2017-09-23T06:01:10.524Z,8.77
2017-09-23T06:02:10.486Z,8.81
2017-09-23T06:03:10.488Z,8.86
2017-09-23T06:04:10.470Z,8.86
2017-09-23T06:05:10.463Z,8.96
2017-09-23T06:06:10.446Z,8.98
2017-09-23T06:07:10.440Z,9.04
2017-09-23T06:08:10.426Z,9.17
2017-09-23T06:09:10.418Z,9.23
2017-09-23T06:10:10.086Z,9.26
2017-09-23T06:11:10.400Z,9.31
2017-09-23T06:12:10.390Z,9.47
2017-09-23T06:13:10.380Z,9.5
2017-09-23T06:14:10.373Z,9.61
2017-09-23T06:15:10.359Z,9.71
2017-09-23T06:16:10.038Z,9.79
2017-09-23T06:17:10.345Z,9.93
2017-09-23T06:18:10.333Z,10.02
2017-09-23T06:19:10.325Z,10.12
2017-09-23T06:20:10.315Z,10.2
2017-09-23T06:21:10.307Z,10.3
2017-09-23T06:22:10.297Z,10.34
2017-09-23T06:23:10.285Z,10.42
2017-09-23T06:24:10.285Z,10.48
2017-09-23T06:25:10.275Z,10.67
2017-09-23T06:26:10.264Z,10.74
2017-09-23T06:27:10.255Z,10.88
2017-09-23T06:28:10.249Z,11.09
2017-09-23T06:29:09.601Z,11.28
2017-09-23T06:30:10.228Z,11.39
2017-09-23T06:31:10.223Z,11.54
2017-09-23T06:32:10.223Z,11.69
2017-09-23T06:33:10.211Z,11.85
2017-09-23T06:34:10.198Z,11.95
2017-09-23T06:35:10.200Z,12.01
2017-09-23T06:36:10.192Z,12.12
2017-09-23T06:37:10.177Z,12.28
2017-09-23T06:38:09.851Z,12.32
2017-09-23T06:39:10.169Z,12.46
2017-09-23T06:40:10.159Z,12.49
2017-09-23T06:41:09.828Z,12.59
2017-09-23T06:42:09.826Z,12.7
2017-09-23T06:43:10.136Z,12.75
2017-09-23T06:44:09.809Z,12.79
2017-09-23T06:45:10.129Z,12.85
2017-09-23T06:46:10.117Z,12.96
2017-09-23T06:47:09.792Z,13.01
2017-09-23T06:48:10.104Z,13.07
2017-09-23T06:49:10.101Z,13.2
2017-09-23T06:50:10.093Z,13.23
2017-09-23T06:51:10.085Z,13.38
2017-09-23T06:52:10.082Z,13.42
2017-09-23T06:53:10.074Z,13.51
2017-09-23T06:54:10.073Z,13.55
2017-09-23T06:55:10.067Z,13.63
2017-09-23T06:56:09.735Z,13.7
2017-09-23T06:57:10.054Z,13.67
2017-09-23T06:58:10.052Z,13.75
2017-09-23T06:59:10.039Z,13.81
2017-09-23T07:00:10.028Z,13.71
2017-09-23T07:01:10.029Z,13.82
2017-09-23T07:02:10.022Z,13.95
2017-09-23T07:03:10.015Z,14.02
2017-09-23T07:04:10.012Z,14.03
2017-09-23T07:05:09.691Z,14.07
2017-09-23T07:06:10.001Z,14.14
2017-09-23T07:07:10.000Z,14.2
2017-09-23T07:08:09.992Z,14.12
2017-09-23T07:09:09.980Z,14.15
2017-09-23T07:10:09.661Z,14.12
2017-09-23T07:11:09.972Z,14.17
2017-09-23T07:12:09.968Z,14.07
2017-09-23T07:13:09.963Z,14.06
2017-09-23T07:14:09.641Z,14.15
2017-09-23T07:15:09.949Z,14.25
2017-09-23T07:16:09.632Z,14.24
2017-09-23T07:17:09.949Z,14.27
2017-09-23T07:18:09.931Z,14.39
2017-09-23T07:19:09.613Z,14.51
2017-09-23T07:20:09.602Z,14.54
2017-09-23T07:21:09.921Z,14.6
2017-09-23T07:22:09.916Z,14.55
2017-09-23T07:23:09.591Z,14.52
2017-09-23T07:24:09.585Z,14.72
2017-09-23T07:25:09.902Z,14.61
2017-09-23T07:26:09.574Z,14.62
2017-09-23T07:27:09.887Z,14.68
2017-09-23T07:28:09.882Z,14.61
2017-09-23T07:29:09.875Z,14.55
2017-09-23T07:30:09.873Z,14.57
2017-09-23T07:31:09.869Z,14.65
2017-09-23T07:32:09.876Z,14.7
2017-09-23T07:33:09.857Z,14.84
2017-09-23T07:34:09.534Z,14.83
2017-09-23T07:35:09.849Z,14.98
2017-09-23T07:36:09.843Z,15.06
2017-09-23T07:37:09.839Z,15.17
2017-09-23T07:38:09.834Z,15.27
2017-09-23T07:39:09.828Z,15.35
2017-09-23T07:40:09.504Z,15.49
2017-09-23T07:41:09.823Z,15.5
2017-09-23T07:42:09.814Z,15.69
2017-09-23T07:43:09.485Z,15.75
2017-09-23T07:44:09.486Z,15.9
2017-09-23T07:45:09.798Z,16
2017-09-23T07:46:09.473Z,15.97
2017-09-23T07:47:09.469Z,16
2017-09-23T07:48:09.468Z,16.04
2017-09-23T07:49:09.781Z,16
2017-09-23T07:50:09.772Z,16.01
2017-09-23T07:51:09.769Z,15.96
2017-09-23T07:52:09.763Z,16.02
2017-09-23T07:53:09.763Z,15.96
2017-09-23T07:54:09.438Z,16.01
2017-09-23T07:55:09.433Z,16.07
2017-09-23T07:56:09.753Z,16.21
2017-09-23T07:57:09.743Z,16.23
2017-09-23T07:58:09.740Z,16.35
2017-09-23T07:59:09.736Z,16.5
2017-09-23T08:00:09.413Z,16.68
2017-09-23T08:01:09.407Z,16.75
2017-09-23T08:02:09.727Z,16.98
2017-09-23T08:03:09.720Z,17.01
2017-09-23T08:04:09.720Z,17.08
2017-09-23T08:05:09.709Z,17.19
2017-09-23T08:06:09.708Z,17.26
2017-09-23T08:07:09.709Z,17.41
2017-09-23T08:08:09.380Z,17.4
2017-09-23T08:09:09.699Z,17.37
2017-09-23T08:10:09.699Z,17.46
2017-09-23T08:11:09.692Z,17.58
2017-09-23T08:12:09.690Z,17.59
2017-09-23T08:13:09.687Z,17.75
2017-09-23T08:14:09.682Z,17.9
2017-09-23T08:15:09.678Z,17.99
2017-09-23T08:16:09.355Z,18.17
2017-09-23T08:17:09.356Z,18.26
2017-09-23T08:18:09.343Z,18.3
2017-09-23T08:19:09.668Z,18.27
2017-09-23T08:20:09.659Z,18.39
2017-09-23T08:21:09.652Z,18.45
2017-09-23T08:22:09.654Z,18.44
2017-09-23T08:23:09.327Z,18.51
2017-09-23T08:24:09.329Z,18.55
2017-09-23T08:25:09.651Z,18.58
2017-09-23T08:26:09.004Z,18.57
2017-09-23T08:27:09.640Z,18.63
2017-09-23T08:28:09.317Z,18.66
2017-09-23T08:29:09.311Z,18.65
2017-09-23T08:30:09.316Z,18.78
2017-09-23T08:31:09.305Z,18.81
2017-09-23T08:32:09.624Z,18.82
2017-09-23T08:33:09.620Z,18.85
2017-09-23T08:34:09.296Z,18.91
2017-09-23T08:35:09.624Z,19.04
2017-09-23T08:36:09.291Z,19.02
2017-09-23T08:37:09.609Z,19.1
2017-09-23T08:38:09.287Z,19.13
2017-09-23T08:39:09.605Z,19.21
2017-09-23T08:40:09.598Z,19.29
2017-09-23T08:41:09.600Z,19.36
2017-09-23T08:42:08.954Z,19.39
2017-09-23T08:43:09.593Z,19.39
2017-09-23T08:44:09.594Z,19.39
2017-09-23T08:45:09.617Z,19.37
2017-09-23T08:46:09.584Z,19.33
2017-09-23T08:47:09.263Z,19.28
2017-09-23T08:48:08.939Z,19.25
2017-09-23T08:49:09.571Z,19.32
2017-09-23T08:50:09.573Z,19.28
2017-09-23T08:51:09.569Z,19.32
2017-09-23T08:52:09.571Z,19.44
2017-09-23T08:53:09.250Z,19.44
2017-09-23T08:54:09.242Z,19.36
2017-09-23T08:55:09.563Z,19.36
2017-09-23T08:56:09.238Z,19.31
2017-09-23T08:57:09.554Z,19.31
2017-09-23T08:58:09.239Z,19.29
2017-09-23T08:59:09.229Z,19.26
2017-09-23T09:00:09.548Z,19.31
2017-09-23T09:01:09.548Z,19.37
2017-09-23T09:02:09.545Z,19.33
2017-09-23T09:03:09.541Z,19.4
2017-09-23T09:04:09.218Z,19.4
2017-09-23T09:05:09.537Z,19.47
2017-09-23T09:06:09.533Z,19.58
2017-09-23T09:07:09.214Z,19.54
2017-09-23T09:08:09.526Z,19.51
2017-09-23T09:09:09.206Z,19.61
2017-09-23T09:10:09.525Z,19.65
2017-09-23T09:11:09.203Z,19.73
2017-09-23T09:12:09.198Z,19.65
2017-09-23T09:13:09.519Z,19.61
2017-09-23T09:14:09.193Z,19.65
2017-09-23T09:15:09.192Z,19.65
2017-09-23T09:16:09.508Z,19.65
2017-09-23T09:17:09.505Z,19.71
2017-09-23T09:18:09.505Z,19.78
2017-09-23T09:19:09.504Z,19.86
2017-09-23T09:20:08.866Z,19.83
2017-09-23T09:21:09.501Z,19.84
2017-09-23T09:22:09.503Z,19.92
2017-09-23T09:23:09.500Z,19.98
2017-09-23T09:24:09.172Z,20.02
2017-09-23T09:25:09.171Z,19.94
2017-09-23T09:26:09.487Z,19.99
2017-09-23T09:27:08.845Z,19.92
2017-09-23T09:28:09.168Z,19.84
2017-09-23T09:29:09.192Z,19.83
2017-09-23T09:30:09.486Z,19.73
2017-09-23T09:31:09.158Z,19.46
2017-09-23T09:32:09.481Z,19.29
2017-09-23T09:33:09.478Z,19.18
2017-09-23T09:34:09.474Z,19.19
2017-09-23T09:35:09.477Z,19.08
2017-09-23T09:36:10.656Z,19.16
2017-09-23T09:37:09.156Z,19.16
2017-09-23T09:38:09.470Z,19.31
2017-09-23T09:39:09.467Z,19.39
2017-09-23T09:40:09.146Z,19.51
2017-09-23T09:41:09.463Z,19.65
2017-09-23T09:42:09.141Z,19.59
2017-09-23T09:43:09.467Z,19.63
2017-09-23T09:44:09.135Z,19.76
2017-09-23T09:45:09.457Z,19.8
2017-09-23T09:46:09.136Z,19.86
2017-09-23T09:47:09.454Z,19.86
2017-09-23T09:48:09.446Z,19.78
2017-09-23T09:49:09.154Z,19.92
2017-09-23T09:50:08.806Z,19.84
2017-09-23T09:51:09.443Z,19.92
2017-09-23T09:52:08.799Z,19.92
2017-09-23T09:53:09.119Z,20.08
2017-09-23T09:54:09.437Z,19.96
2017-09-23T09:55:09.433Z,19.92
2017-09-23T09:56:09.113Z,19.96
2017-09-23T09:57:09.430Z,20.08
2017-09-23T09:58:09.426Z,19.99
2017-09-23T09:59:09.107Z,20.05
2017-09-23T10:00:09.108Z,20.11
2017-09-23T10:01:09.422Z,20.08
2017-09-23T10:02:09.101Z,19.88
2017-09-23T10:03:09.418Z,19.86
2017-09-23T10:04:09.419Z,19.74
2017-09-23T10:05:09.422Z,19.71
2017-09-23T10:06:09.413Z,19.59
2017-09-23T10:07:09.412Z,19.51
2017-09-23T10:08:09.090Z,19.4
2017-09-23T10:09:09.406Z,19.43
2017-09-23T10:10:09.408Z,19.43
2017-09-23T10:11:09.407Z,19.48
2017-09-23T10:12:09.785Z,19.59
2017-09-23T10:13:09.401Z,19.73
2017-09-23T10:14:09.080Z,19.73
2017-09-23T10:15:09.078Z,19.87
2017-09-23T10:16:09.389Z,19.91
2017-09-23T10:17:09.391Z,19.95
2017-09-23T10:18:09.388Z,19.99
2017-09-23T10:19:09.387Z,19.92
2017-09-23T10:20:09.395Z,19.88
2017-09-23T10:21:09.060Z,19.84
2017-09-23T10:22:09.057Z,19.84
2017-09-23T10:23:09.380Z,19.86
2017-09-23T10:24:09.400Z,19.8
2017-09-23T10:25:09.057Z,19.83
2017-09-23T10:26:09.370Z,19.94
2017-09-23T10:27:09.052Z,20.03
2017-09-23T10:28:09.366Z,19.98
2017-09-23T10:29:09.366Z,20.08
2017-09-23T10:30:09.046Z,20.16
2017-09-23T10:31:09.360Z,20.26
2017-09-23T10:32:09.039Z,20.32
2017-09-23T10:33:09.355Z,20.31
2017-09-23T10:34:09.357Z,20.33
2017-09-23T10:35:09.040Z,20.66
2017-09-23T10:36:09.029Z,20.61
2017-09-23T10:37:09.030Z,20.61
2017-09-23T10:38:09.028Z,20.61
2017-09-23T10:39:09.027Z,20.61
2017-09-23T10:40:09.346Z,20.58
2017-09-23T10:41:09.342Z,20.66
2017-09-23T10:42:09.020Z,20.72
2017-09-23T10:43:09.022Z,20.7
2017-09-23T10:44:09.337Z,20.72
2017-09-23T10:45:09.340Z,20.91
2017-09-23T10:46:09.337Z,20.92
2017-09-23T10:47:09.337Z,20.92
2017-09-23T10:48:09.337Z,20.99
2017-09-23T10:49:09.332Z,20.98
2017-09-23T10:50:09.010Z,20.98
2017-09-23T10:51:09.330Z,21.03
2017-09-23T10:52:09.329Z,21.13
2017-09-23T10:53:09.330Z,21.29
2017-09-23T10:54:09.005Z,21.42
2017-09-23T10:55:09.325Z,21.47
2017-09-23T10:56:09.002Z,21.42
2017-09-23T10:57:09.325Z,21.4
2017-09-23T10:58:09.003Z,21.4
2017-09-23T10:59:09.320Z,21.34
2017-09-23T11:00:09.001Z,21.37
2017-09-23T11:01:08.997Z,21.32
2017-09-23T11:02:09.000Z,21.35
2017-09-23T11:03:09.319Z,21.19
2017-09-23T11:04:08.998Z,21.21
2017-09-23T11:05:08.997Z,21.13
2017-09-23T11:06:09.320Z,21.16
2017-09-23T11:07:09.317Z,21.16
2017-09-23T11:08:08.993Z,21.13
2017-09-23T11:09:09.310Z,21.06
2017-09-23T11:10:08.992Z,20.92
2017-09-23T11:11:09.315Z,20.79
2017-09-23T11:12:08.990Z,20.66
2017-09-23T11:13:09.307Z,20.57
2017-09-23T11:14:08.987Z,20.55
2017-09-23T11:15:09.311Z,20.54
2017-09-23T11:16:09.318Z,20.58
2017-09-23T11:17:09.309Z,20.52
2017-09-23T11:18:09.314Z,20.66
2017-09-23T11:19:09.310Z,20.57
2017-09-23T11:20:09.307Z,20.64
2017-09-23T11:21:08.983Z,20.67
2017-09-23T11:22:08.978Z,20.61
2017-09-23T11:23:09.327Z,20.77
2017-09-23T11:24:09.300Z,20.72
2017-09-23T11:25:09.306Z,20.72
2017-09-23T11:26:08.658Z,20.91
2017-09-23T11:27:08.977Z,20.97
2017-09-23T11:28:09.295Z,20.79
2017-09-23T11:29:08.976Z,20.76
2017-09-23T11:30:09.298Z,20.69
2017-09-23T11:31:09.293Z,20.64
2017-09-23T11:32:08.652Z,20.58
2017-09-23T11:33:09.291Z,20.7
2017-09-23T11:34:08.978Z,20.66
2017-09-23T11:35:09.290Z,20.52
2017-09-23T11:36:08.984Z,20.32
2017-09-23T11:37:08.967Z,20.28
2017-09-23T11:38:08.967Z,20.31
2017-09-23T11:39:08.964Z,20.32
2017-09-23T11:40:08.967Z,20.36
2017-09-23T11:41:09.284Z,20.31
2017-09-23T11:42:08.962Z,20.26
2017-09-23T11:43:09.281Z,20.17
2017-09-23T11:44:08.956Z,20.08
2017-09-23T11:45:09.279Z,20.08
2017-09-23T11:46:08.635Z,20.05
2017-09-23T11:47:08.956Z,20.02
2017-09-23T11:48:08.952Z,19.87
2017-09-23T11:49:09.270Z,19.8
2017-09-23T11:50:09.264Z,19.66
2017-09-23T11:51:08.950Z,19.54
2017-09-23T11:52:09.268Z,19.47
2017-09-23T11:53:09.264Z,19.41
2017-09-23T11:54:09.262Z,19.37
2017-09-23T11:55:09.259Z,19.31
2017-09-23T11:56:09.256Z,19.47
2017-09-23T11:57:09.256Z,19.51
2017-09-23T11:58:09.265Z,19.44
2017-09-23T11:59:08.931Z,19.33
2017-09-23T12:00:09.249Z,19.25
2017-09-23T12:01:08.953Z,19.21
2017-09-23T12:02:09.248Z,19.13
2017-09-23T12:03:09.242Z,19.19
2017-09-23T12:04:08.919Z,19.19
2017-09-23T12:05:08.920Z,19.18
2017-09-23T12:06:08.918Z,19.19
2017-09-23T12:07:08.623Z,19.26
2017-09-23T12:08:09.232Z,19.32
2017-09-23T12:09:09.238Z,19.43
2017-09-23T12:10:09.228Z,19.46
2017-09-23T12:11:09.224Z,19.29
2017-09-23T12:12:09.220Z,19.25
2017-09-23T12:13:09.219Z,19.16
2017-09-23T12:14:09.222Z,19.16
2017-09-23T12:15:09.214Z,19.14
2017-09-23T12:16:08.891Z,19.1
2017-09-23T12:17:08.886Z,19.06
2017-09-23T12:18:09.201Z,18.99
2017-09-23T12:19:09.205Z,18.99
2017-09-23T12:20:08.879Z,18.95
2017-09-23T12:21:09.198Z,18.8
2017-09-23T12:22:09.202Z,18.7
2017-09-23T12:23:08.872Z,18.73
2017-09-23T12:24:08.875Z,18.69
2017-09-23T12:25:09.185Z,18.73
2017-09-23T12:26:08.866Z,18.72
2017-09-23T12:27:09.382Z,18.8
2017-09-23T12:28:09.176Z,18.81
2017-09-23T12:29:09.177Z,18.81
2017-09-23T12:30:08.854Z,18.78
2017-09-23T12:31:08.850Z,18.88
2017-09-23T12:32:08.845Z,18.91
2017-09-23T12:33:09.168Z,18.91
2017-09-23T12:34:08.842Z,18.94
2017-09-23T12:35:09.156Z,18.92
2017-09-23T12:36:08.834Z,19.02
2017-09-23T12:37:09.153Z,19
2017-09-23T12:38:08.833Z,18.92
2017-09-23T12:39:09.150Z,18.8
2017-09-23T12:40:08.822Z,18.84
2017-09-23T12:41:08.819Z,18.76
2017-09-23T12:42:08.818Z,18.72
2017-09-23T12:43:09.139Z,18.66
2017-09-23T12:44:08.819Z,18.66
2017-09-23T12:45:08.806Z,18.51
2017-09-23T12:46:09.123Z,18.51
2017-09-23T12:47:09.130Z,18.42
2017-09-23T12:48:08.799Z,18.36
2017-09-23T12:49:08.795Z,18.39
2017-09-23T12:50:09.114Z,18.37
2017-09-23T12:51:09.111Z,18.48
2017-09-23T12:52:08.785Z,18.48
2017-09-23T12:53:09.105Z,18.45
2017-09-23T12:54:08.780Z,18.47
2017-09-23T12:55:08.776Z,18.51
2017-09-23T12:56:08.774Z,18.6
2017-09-23T12:57:08.769Z,18.65
2017-09-23T12:58:09.295Z,18.7
2017-09-23T12:59:09.087Z,18.75
2017-09-23T13:00:09.080Z,18.69
2017-09-23T13:01:09.075Z,18.69
2017-09-23T13:02:09.074Z,18.76
2017-09-23T13:03:08.750Z,18.88
2017-09-23T13:04:08.750Z,18.81
2017-09-23T13:05:09.071Z,18.87
2017-09-23T13:06:09.072Z,18.88
2017-09-23T13:07:09.074Z,18.81
2017-09-23T13:08:09.061Z,18.78